Time;durP1;ratioP1;P1;durP2;ratioP2;P2;SDS_P1;SDS_P2;PMS_P1;PMS_P2;Temp;Humidity;BMP_temperature;BMP_pressure;BME280_temperature;BME280_humidity;BME280_pressure;Samples;Min_cycle;Max_cycle;Signal;HPM_P1;HPM_P2
2021/03/21 00:02:13;;;;;;;5.88;4.78;;;4.60;67.40;;;;;;4956417;28;20896;-63
2021/03/21 00:04:39;;;;;;;5.70;4.57;;;4.50;68.70;;;;;;4953224;28;20502;-63
2021/03/21 00:07:05;;;;;;;6.75;5.20;;;4.50;67.60;;;;;;4956383;28;20469;-63
2021/03/21 00:09:32;;;;;;;6.43;5.65;;;4.50;67.60;;;;;;4955908;28;20498;-63
2021/03/21 00:11:58;;;;;;;6.68;5.57;;;4.50;67.90;;;;;;4955389;28;20405;-63
2021/03/21 00:14:24;;;;;;;7.68;6.35;;;4.50;67.80;;;;;;4955535;28;20394;-63
2021/03/21 00:16:50;;;;;;;6.50;5.53;;;4.50;67.90;;;;;;4955464;28;20401;-63
2021/03/21 00:19:16;;;;;;;6.03;5.43;;;4.40;68.00;;;;;;4955432;28;20437;-64
2021/03/21 00:21:42;;;;;;;7.50;6.35;;;4.20;68.30;;;;;;4955026;28;20426;-63
2021/03/21 00:24:08;;;;;;;9.38;6.25;;;4.10;70.10;;;;;;4955367;28;20444;-63
2021/03/21 00:26:35;;;;;;;7.63;6.40;;;3.90;71.00;;;;;;4955227;28;20409;-63
2021/03/21 00:29:02;;;;;;;7.32;6.13;;;;;;;;;;4969990;28;20422;-63
2021/03/21 00:31:28;;;;;;;6.53;5.60;;;;;;;;;;4955252;28;20409;-63
2021/03/21 00:33:54;;;;;;;8.10;5.60;;;;;;;;;;4952161;28;20419;-63
2021/03/21 00:36:21;;;;;;;6.88;6.18;;;;;;;;;;4953619;29;20480;-63
2021/03/21 00:38:50;;;;;;;8.23;6.55;;;3.80;71.70;;;;;;4955085;28;20425;-63
2021/03/21 00:41:17;;;;;;;6.85;6.15;;;;;;;;;;4969662;28;20491;-63
2021/03/21 00:43:45;;;;;;;6.15;5.55;;;2.70;83.30;;;;;;4955663;28;20841;-63
2021/03/21 00:46:11;;;;;;;8.02;6.13;;;2.80;82.60;;;;;;4955777;28;20398;-63
2021/03/21 00:48:39;;;;;;;6.90;5.88;;;2.90;83.20;;;;;;4955689;28;20397;-63
2021/03/21 00:51:06;;;;;;;6.90;5.95;;;2.90;82.20;;;;;;4955545;28;20463;-63
2021/03/21 00:53:32;;;;;;;8.20;6.35;;;3.00;82.70;;;;;;4944675;28;20405;-63
2021/03/21 00:55:58;;;;;;;11.68;8.38;;;3.00;81.80;;;;;;4949552;29;20461;-63
2021/03/21 00:58:24;;;;;;;14.52;9.68;;;3.00;82.20;;;;;;4970946;28;20416;-63
2021/03/21 01:00:54;;;;;;;15.43;11.07;;;3.00;82.60;;;;;;4949366;28;20804;-63
2021/03/21 01:03:21;;;;;;;17.90;11.63;;;3.00;83.20;;;;;;4945216;28;20409;-64
2021/03/21 01:05:48;;;;;;;18.25;11.90;;;3.00;82.70;;;;;;4946771;28;20904;-63
2021/03/21 01:08:20;;;;;;;17.27;11.20;;;2.90;83.80;;;;;;4955220;28;20952;-62
2021/03/21 01:10:48;;;;;;;14.68;9.45;;;2.90;83.20;;;;;;4946644;28;20482;-63
2021/03/21 01:13:14;;;;;;;12.50;8.75;;;2.90;83.30;;;;;;4950700;28;20955;-63
2021/03/21 01:15:41;;;;;;;11.98;8.82;;;2.80;83.00;;;;;;4954758;28;20406;-63
2021/03/21 01:18:08;;;;;;;16.23;10.27;;;;;;;;;;4951707;28;20885;-62
2021/03/21 01:20:34;;;;;;;15.40;10.20;;;;;;;;;;4956537;28;20428;-63
2021/03/21 01:23:00;;;;;;;12.32;8.95;;;;;;;;;;4954917;28;20931;-63
2021/03/21 01:25:27;;;;;;;10.35;7.60;;;;;;;;;;4954876;29;20402;-62
2021/03/21 01:27:54;;;;;;;16.67;12.75;;;;;;;;;;4953708;29;20553;-63
2021/03/21 01:30:22;;;;;;;26.17;17.30;;;;;;;;;;4954791;28;20406;-63
2021/03/21 01:32:48;;;;;;;12.23;9.57;;;;;;;;;;4954888;28;20750;-63
2021/03/21 01:35:15;;;;;;;13.05;9.48;;;;;;;;;;4954525;29;20464;-62
2021/03/21 01:37:42;;;;;;;13.25;9.57;;;;;;;;;;4943796;29;20924;-63
2021/03/21 01:40:09;;;;;;;18.25;12.40;;;;;;;;;;4953354;29;20441;-63
2021/03/21 01:42:38;;;;;;;9.77;7.83;;;;;;;;;;4954522;28;20480;-63
2021/03/21 01:45:19;;;;;;;12.02;8.48;;;;;;;;;;4946677;28;20962;-63
2021/03/21 01:47:45;;;;;;;12.50;8.70;;;;;;;;;;4937487;29;20467;-63
2021/03/21 01:50:25;;;;;;;9.90;6.35;;;;;;;;;;4950116;29;20502;-63
2021/03/21 01:52:52;;;;;;;11.50;8.70;;;2.60;76.80;;;;;;4950597;29;20402;-63
2021/03/21 01:55:19;;;;;;;10.15;6.95;;;2.80;83.70;;;;;;4954401;28;20432;-63
2021/03/21 01:57:46;;;;;;;8.15;6.65;;;;;;;;;;4954414;28;20920;-64
2021/03/21 02:00:14;;;;;;;7.63;5.85;;;3.20;99.90;;;;;;4948615;29;20411;-63
2021/03/21 02:02:40;;;;;;;6.97;5.50;;;3.20;82.20;;;;;;4946496;29;20418;-64
2021/03/21 02:05:07;;;;;;;5.38;4.88;;;3.30;81.90;;;;;;5031670;23;20440;-75
2021/03/21 02:07:44;;;;;;;5.88;5.28;;;3.30;82.10;;;;;;5012585;28;21009;-75
2021/03/21 02:10:19;;;;;;;7.10;5.27;;;3.30;82.90;;;;;;5012777;28;20450;-76
2021/03/21 02:12:56;;;;;;;6.13;4.80;;;3.30;82.00;;;;;;5010351;28;20512;-76
2021/03/21 02:15:33;;;;;;;5.05;4.55;;;3.40;81.50;;;;;;5012478;28;22047;-75
2021/03/21 02:18:06;;;;;;;5.95;5.35;;;3.50;81.30;;;;;;5012651;28;20429;-76
2021/03/21 02:21:15;;;;;;;7.07;5.72;;;3.50;81.50;;;;;;5012112;28;20446;-75
2021/03/21 02:24:24;;;;;;;7.93;6.35;;;3.50;82.70;;;;;;5012367;28;20385;-75
2021/03/21 02:27:21;;;;;;;6.93;5.80;;;3.50;83.90;;;;;;5012650;28;20443;-76
2021/03/21 02:29:53;;;;;;;6.30;5.60;;;3.30;84.70;;;;;;5009466;28;20553;-76
2021/03/21 02:32:23;;;;;;;6.72;5.70;;;3.20;85.80;;;;;;5011093;28;20545;-75
2021/03/21 02:34:58;;;;;;;7.50;6.45;;;3.20;85.80;;;;;;5010993;28;20449;-75
2021/03/21 02:37:40;;;;;;;7.47;6.57;;;3.10;87.40;;;;;;5012227;28;20396;-76
2021/03/21 02:40:18;;;;;;;6.90;5.88;;;2.90;88.70;;;;;;5012716;28;20459;-75
2021/03/21 02:42:48;;;;;;;7.00;6.30;;;2.70;89.40;;;;;;5010830;28;20477;-75
2021/03/21 02:45:20;;;;;;;7.22;5.93;;;2.70;89.60;;;;;;5012420;28;20802;-75
2021/03/21 02:47:49;;;;;;;8.07;6.38;;;2.70;90.20;;;;;;5014038;28;20455;-75
2021/03/21 02:50:22;;;;;;;6.70;5.72;;;2.70;90.00;;;;;;5012233;28;20408;-76
2021/03/21 02:52:52;;;;;;;7.65;6.75;;;2.70;90.10;;;;;;5014656;28;20467;-76
2021/03/21 02:55:23;;;;;;;8.90;6.80;;;2.70;90.30;;;;;;5007604;28;20488;-76
2021/03/21 02:57:57;;;;;;;7.97;6.63;;;2.70;89.70;;;;;;5008082;28;20406;-75
2021/03/21 03:00:29;;;;;;;6.72;6.00;;;2.70;90.00;;;;;;5016006;28;20423;-75
2021/03/21 03:02:59;;;;;;;6.90;5.88;;;2.80;89.50;;;;;;5014268;28;20483;-75
2021/03/21 03:05:28;;;;;;;7.35;6.60;;;2.70;89.60;;;;;;4956469;29;20522;-73
2021/03/21 03:07:59;;;;;;;7.22;6.32;;;2.80;88.70;;;;;;4956391;28;20451;-73
2021/03/21 03:10:30;;;;;;;7.03;5.90;;;2.90;87.90;;;;;;4955874;28;20507;-72
2021/03/21 03:13:03;;;;;;;7.32;6.25;;;3.00;87.70;;;;;;4939356;29;20492;-73
2021/03/21 03:15:30;;;;;;;7.03;6.33;;;2.90;89.20;;;;;;4957331;29;20464;-73
2021/03/21 03:18:01;;;;;;;7.10;5.93;;;3.00;88.00;;;;;;4957495;28;20516;-72
2021/03/21 03:20:37;;;;;;;7.10;5.82;;;3.00;88.00;;;;;;4943759;28;20438;-72
2021/03/21 03:23:09;;;;;;;7.63;6.35;;;3.00;88.00;;;;;;4956130;29;21003;-73
2021/03/21 03:25:41;;;;;;;7.20;6.00;;;3.10;87.60;;;;;;4957120;28;20486;-72
2021/03/21 03:28:11;;;;;;;6.90;6.20;;;3.10;87.50;;;;;;4957589;28;20512;-73
2021/03/21 03:30:45;;;;;;;7.20;5.97;;;3.00;88.20;;;;;;4960040;28;20453;-72
2021/03/21 03:33:11;;;;;;;6.82;5.70;;;2.90;87.90;;;;;;4943038;29;20450;-72
2021/03/21 03:35:37;;;;;;;6.57;5.90;;;2.90;87.90;;;;;;4946045;29;20907;-73
2021/03/21 03:38:05;;;;;;;6.78;6.07;;;2.90;88.00;;;;;;4952488;28;20406;-73
2021/03/21 03:40:31;;;;;;;8.25;5.53;;;2.80;89.40;;;;;;4967868;28;20972;-72
2021/03/21 03:43:18;;;;;;;6.85;6.05;;;2.80;88.60;;;;;;4955665;28;20397;-73
2021/03/21 03:45:53;;;;;;;7.72;6.35;;;2.80;88.70;;;;;;4956898;28;20456;-72
2021/03/21 03:48:34;;;;;;;7.38;6.53;;;2.70;89.60;;;;;;4956752;28;20460;-72
2021/03/21 03:51:09;;;;;;;6.82;6.13;;;2.50;90.40;;;;;;4956923;28;20600;-72
2021/03/21 03:54:01;;;;;;;7.70;6.47;;;2.50;89.90;;;;;;4942708;29;20465;-73
2021/03/21 03:56:32;;;;;;;8.88;6.72;;;2.50;90.40;;;;;;4946503;29;20458;-70
2021/03/21 03:59:10;;;;;;;7.57;6.10;;;2.60;90.30;;;;;;4956984;28;20436;-71
2021/03/21 04:01:42;;;;;;;7.68;6.28;;;2.60;89.80;;;;;;4956925;28;20510;-71
2021/03/21 04:04:19;;;;;;;6.63;5.95;;;2.60;89.70;;;;;;4967556;28;21017;-71
2021/03/21 04:06:53;;;;;;;7.22;6.22;;;2.60;89.30;;;;;;4994003;28;20461;-71
2021/03/21 04:09:25;;;;;;;6.10;5.10;;;2.60;88.10;;;;;;4993089;28;20504;-71
2021/03/21 04:11:56;;;;;;;5.97;5.32;;;2.60;87.80;;;;;;4993931;28;20409;-71
2021/03/21 04:14:26;;;;;;;7.10;5.40;;;2.60;87.90;;;;;;4994874;28;20413;-71
2021/03/21 04:17:02;;;;;;;6.45;5.55;;;2.60;87.40;;;;;;4993684;28;20922;-71
2021/03/21 04:19:35;;;;;;;6.80;5.65;;;2.60;87.40;;;;;;4986157;28;20464;-71
2021/03/21 04:22:04;;;;;;;7.65;5.72;;;2.50;87.50;;;;;;4994596;28;20555;-70
2021/03/21 04:24:33;;;;;;;8.23;6.55;;;2.40;88.40;;;;;;4995062;28;20503;-70
2021/03/21 04:27:01;;;;;;;7.37;6.23;;;;;;;;;;4994458;28;20432;-71
2021/03/21 04:29:30;;;;;;;6.40;5.75;;;;;;;;;;4977761;28;20464;-71
2021/03/21 04:32:00;;;;;;;6.82;5.80;;;;;;;;;;4990124;28;20495;-70
2021/03/21 04:34:27;;;;;;;7.40;6.53;;;;;;;;;;4993454;28;20410;-71
2021/03/21 04:36:54;;;;;;;8.95;6.38;;;;;;;;;;4993397;28;20406;-70
2021/03/21 04:39:22;;;;;;;7.65;6.47;;;;;;;;;;5009919;28;20889;-70
2021/03/21 04:41:50;;;;;;;7.20;6.30;;;;;;;;;;4985096;28;20798;-70
2021/03/21 04:44:18;;;;;;;8.30;6.43;;;;;;;;;;5019403;28;20456;-70
2021/03/21 04:46:46;;;;;;;8.43;6.40;;;;;;;;;;4993265;28;20411;-71
2021/03/21 04:49:13;;;;;;;8.30;7.20;;;;;;;;;;4983279;28;20444;-70
2021/03/21 04:51:42;;;;;;;7.32;6.45;;;;;;;;;;4993227;28;20505;-71
2021/03/21 04:54:14;;;;;;;7.32;6.57;;;;;;;;;;4998376;28;20487;-70
2021/03/21 04:56:43;;;;;;;7.60;6.65;;;;;;;;;;4993086;28;20522;-70
2021/03/21 04:59:12;;;;;;;8.02;7.22;;;;;;;;;;4994127;28;20417;-71
2021/03/21 05:01:43;;;;;;;6.47;5.77;;;;;;;;;;4994062;28;20502;-70
2021/03/21 05:04:12;;;;;;;7.65;6.03;;;;;;;;;;4992687;28;20442;-70
2021/03/21 05:06:44;;;;;;;7.40;6.60;;;;;;;;;;4994083;28;20430;-70
2021/03/21 05:09:14;;;;;;;8.18;6.80;;;;;;;;;;4983739;28;20404;-70
2021/03/21 05:11:41;;;;;;;8.33;7.43;;;;;;;;;;5003811;28;20391;-70
2021/03/21 05:14:14;;;;;;;8.88;7.30;;;;;;;;;;5003345;28;20538;-70
2021/03/21 05:16:54;;;;;;;7.53;6.68;;;2.30;89.70;;;;;;4993734;28;20429;-70
2021/03/21 05:19:25;;;;;;;8.00;7.15;;;;;;;;;;4993897;28;20401;-71
2021/03/21 05:21:55;;;;;;;8.13;6.93;;;;;;;;;;4995126;28;20780;-70
2021/03/21 05:24:24;;;;;;;8.30;6.63;;;;;;;;;;4992236;28;20418;-70
2021/03/21 05:26:56;;;;;;;7.28;6.38;;;1.40;99.90;;;;;;4993444;28;20406;-70
2021/03/21 05:29:42;;;;;;;7.10;6.40;;;1.30;99.90;;;;;;5008784;28;20449;-70
2021/03/21 05:32:10;;;;;;;8.27;6.70;;;1.20;99.90;;;;;;4991926;28;20453;-70
2021/03/21 05:34:36;;;;;;;8.68;6.78;;;1.30;99.90;;;;;;4993519;28;20394;-70
2021/03/21 05:37:15;;;;;;;7.38;6.55;;;1.30;99.90;;;;;;4993453;28;20473;-70
2021/03/21 05:39:48;;;;;;;8.47;6.60;;;1.30;99.90;;;;;;4993637;28;20486;-70
2021/03/21 05:42:50;;;;;;;9.07;7.40;;;1.40;99.90;;;;;;4978564;28;21043;-70
2021/03/21 05:46:10;;;;;;;7.80;7.00;;;1.40;99.90;;;;;;4986953;28;20409;-70
2021/03/21 05:49:20;;;;;;;7.75;6.95;;;1.30;99.90;;;;;;4951145;28;20408;-70
2021/03/21 05:52:01;;;;;;;9.75;7.90;;;;;;;;;;4984306;28;20969;-70
2021/03/21 05:54:45;;;;;;;8.25;7.28;;;;;;;;;;4980028;28;20394;-70
2021/03/21 05:57:24;;;;;;;7.75;6.90;;;;;;;;;;4981110;28;20403;-70
2021/03/21 06:00:14;;;;;;;7.65;6.25;;;;;;;;;;4995641;28;20401;-70
2021/03/21 06:03:02;;;;;;;7.32;6.45;;;;;;;;;;4975719;28;20418;-70
2021/03/21 06:05:50;;;;;;;8.27;7.05;;;;;;;;;;5007195;28;20434;-70
2021/03/21 06:08:26;;;;;;;7.80;6.32;;;;;;;;;;4975768;28;20509;-70
2021/03/21 06:11:03;;;;;;;7.85;6.55;;;;;;;;;;4987145;28;20391;-70
2021/03/21 06:13:39;;;;;;;7.13;6.43;;;;;;;;;;4979123;28;20410;-70
2021/03/21 06:16:24;;;;;;;12.80;7.82;;;;;;;;;;4997502;28;20468;-70
2021/03/21 06:18:56;;;;;;;8.77;6.50;;;;;;;;;;5007270;28;20489;-70
2021/03/21 06:21:30;;;;;;;11.23;6.80;;;;;;;;;;4993161;28;20450;-71
2021/03/21 06:24:10;;;;;;;10.68;6.55;;;;;;;;;;4988174;28;20499;-70
2021/03/21 06:26:42;;;;;;;8.60;6.80;;;;;;;;;;5011341;28;20961;-70
2021/03/21 06:29:23;;;;;;;13.63;6.78;;;;;;;;;;4979818;28;20456;-71
2021/03/21 06:32:04;;;;;;;14.15;8.02;;;;;;;;;;4989743;28;20414;-71
2021/03/21 06:34:34;;;;;;;9.67;7.53;;;;;;;;;;4991676;28;20481;-70
2021/03/21 06:37:01;;;;;;;12.32;7.90;;;;;;;;;;4992428;28;20470;-71
2021/03/21 06:39:41;;;;;;;11.55;8.10;;;;;;;;;;4992785;28;20973;-70
2021/03/21 06:42:28;;;;;;;8.20;7.35;;;;;;;;;;4991032;28;20418;-71
2021/03/21 06:45:15;;;;;;;9.02;8.10;;;;;;;;;;5014217;28;20406;-71
2021/03/21 06:47:50;;;;;;;10.00;8.40;;;;;;;;;;4992291;28;20398;-71
2021/03/21 06:50:23;;;;;;;20.90;12.77;;;;;;;;;;4996046;28;20408;-71
2021/03/21 06:52:55;;;;;;;19.02;11.82;;;;;;;;;;4991605;28;20397;-71
2021/03/21 06:55:33;;;;;;;21.17;12.43;;;;;;;;;;4991406;28;20494;-71
2021/03/21 06:58:14;;;;;;;11.27;8.87;;;;;;;;;;4988953;28;20416;-71
2021/03/21 07:00:53;;;;;;;10.53;8.10;;;;;;;;;;4986424;28;20402;-71
2021/03/21 07:03:40;;;;;;;20.88;13.68;;;;;;;;;;4992361;28;20551;-72
2021/03/21 07:06:40;;;;;;;15.00;10.53;;;;;;;;;;4992575;28;20515;-71
2021/03/21 07:09:08;;;;;;;13.23;10.20;;;;;;;;;;5003820;28;20511;-71
2021/03/21 07:12:01;;;;;;;11.07;8.57;;;;;;;;;;4991603;28;20463;-71
2021/03/21 07:14:45;;;;;;;12.05;9.18;;;;;;;;;;4991526;28;20940;-71
2021/03/21 07:17:28;;;;;;;10.35;8.40;;;;;;;;;;4990142;28;20460;-72
2021/03/21 07:20:12;;;;;;;17.00;12.10;;;;;;;;;;4990202;28;20471;-71
2021/03/21 07:22:56;;;;;;;15.02;11.48;;;;;;;;;;4977976;28;20434;-71
2021/03/21 07:25:41;;;;;;;12.35;9.40;;;;;;;;;;4991526;28;20460;-71
2021/03/21 07:28:16;;;;;;;10.68;8.00;;;;;;;;;;5005778;28;20421;-70
2021/03/21 07:30:46;;;;;;;9.15;8.25;;;;;;;;;;4991665;28;20440;-70
2021/03/21 07:33:29;;;;;;;9.90;8.05;;;;;;;;;;4990830;28;20451;-72
2021/03/21 07:36:05;;;;;;;12.43;9.05;;;;;;;;;;4991033;28;20473;-71
2021/03/21 07:38:43;;;;;;;10.45;9.05;;;;;;;;;;4990693;28;20464;-70
2021/03/21 07:41:14;;;;;;;10.52;8.60;;;;;;;;;;4981731;28;20530;-71
2021/03/21 07:43:49;;;;;;;9.63;8.60;;;;;;;;;;4991612;28;20483;-71
2021/03/21 07:46:23;;;;;;;10.27;8.45;;;;;;;;;;4993209;28;20859;-71
2021/03/21 07:48:57;;;;;;;11.23;8.85;;;;;;;;;;4993561;28;20464;-71
2021/03/21 07:51:28;;;;;;;10.77;8.70;;;;;;;;;;4991644;28;20925;-71
2021/03/21 07:53:57;;;;;;;11.88;9.68;;;;;;;;;;4994965;28;20436;-71
2021/03/21 07:56:30;;;;;;;12.80;9.60;;;1.20;99.90;;;;;;4994207;28;20495;-70
2021/03/21 07:59:01;;;;;;;11.80;10.18;;;3.60;96.10;;;;;;4994076;28;20456;-71
2021/03/21 08:01:28;;;;;;;13.43;9.50;;;3.50;95.50;;;;;;5015632;28;20411;-71
2021/03/21 08:03:57;;;;;;;11.20;9.48;;;;;;;;;;4991888;28;20417;-71
2021/03/21 08:06:30;;;;;;;10.88;9.57;;;3.60;95.70;;;;;;4993793;28;20501;-70
2021/03/21 08:09:03;;;;;;;10.45;8.40;;;3.80;96.50;;;;;;4986942;28;20999;-70
2021/03/21 08:11:32;;;;;;;9.25;8.07;;;3.90;96.80;;;;;;4982535;28;20402;-71
2021/03/21 08:14:11;;;;;;;11.95;9.10;;;4.10;96.70;;;;;;4982802;28;20892;-70
2021/03/21 08:16:40;;;;;;;10.50;8.90;;;;;;;;;;4993430;28;20801;-71
2021/03/21 08:19:07;;;;;;;9.95;8.88;;;4.50;95.80;;;;;;4993743;28;20457;-71
2021/03/21 08:21:33;;;;;;;12.02;9.13;;;4.90;95.90;;;;;;4994830;28;20453;-71
2021/03/21 08:24:02;;;;;;;11.05;8.88;;;;;;;;;;4993800;28;20401;-70
2021/03/21 08:26:30;;;;;;;8.60;7.65;;;4.80;93.40;;;;;;4993376;28;20421;-73
2021/03/21 08:29:01;;;;;;;8.88;7.65;;;4.90;93.00;;;;;;4992477;28;20998;-71
2021/03/21 08:31:29;;;;;;;8.95;7.00;;;4.80;91.70;;;;;;4994469;28;20394;-71
2021/03/21 08:34:19;;;;;;;10.27;8.30;;;5.00;90.60;;;;;;4992940;28;20478;-72
2021/03/21 08:36:45;;;;;;;10.60;8.35;;;4.90;89.00;;;;;;4992517;28;20477;-72
2021/03/21 08:39:18;;;;;;;8.30;6.43;;;4.90;88.70;;;;;;4992614;28;20398;-71
2021/03/21 08:41:47;;;;;;;9.57;7.40;;;5.00;88.20;;;;;;4992478;28;20518;-71
2021/03/21 08:44:32;;;;;;;8.65;7.00;;;5.00;87.00;;;;;;4993640;28;20523;-71
2021/03/21 08:46:59;;;;;;;9.52;7.75;;;4.90;83.50;;;;;;4992539;28;20480;-72
2021/03/21 08:49:31;;;;;;;11.57;8.25;;;4.90;86.00;;;;;;4993576;28;20406;-72
2021/03/21 08:51:58;;;;;;;18.33;14.27;;;5.20;86.90;;;;;;4992194;28;20804;-71
2021/03/21 08:54:28;;;;;;;15.90;11.55;;;5.30;82.90;;;;;;4992369;28;20461;-71
2021/03/21 08:57:03;;;;;;;12.15;8.82;;;5.20;81.50;;;;;;5009341;28;20939;-71
2021/03/21 08:59:32;;;;;;;10.13;7.88;;;5.20;82.40;;;;;;4992375;28;20398;-72
2021/03/21 09:02:03;;;;;;;9.13;6.90;;;5.40;84.00;;;;;;4990738;28;20418;-72
2021/03/21 09:04:31;;;;;;;9.23;6.22;;;5.90;83.30;;;;;;4992950;28;20414;-71
2021/03/21 09:07:21;;;;;;;7.20;6.28;;;6.30;80.40;;;;;;4992108;28;20422;-72
2021/03/21 09:10:06;;;;;;;7.63;5.93;;;6.70;77.30;;;;;;4989230;28;20408;-71
2021/03/21 09:12:35;;;;;;;7.78;6.13;;;6.70;76.60;;;;;;4991527;28;20407;-72
2021/03/21 09:15:30;;;;;;;8.38;6.38;;;6.80;75.60;;;;;;4991776;28;20525;-71
2021/03/21 09:18:12;;;;;;;7.43;6.53;;;6.40;76.40;;;;;;4991448;28;20390;-71
2021/03/21 09:20:43;;;;;;;9.40;6.28;;;6.30;76.70;;;;;;5006983;28;20767;-72
2021/03/21 09:23:33;;;;;;;6.75;6.05;;;6.30;74.10;;;;;;4991874;28;20411;-71
2021/03/21 09:26:00;;;;;;;7.50;5.93;;;5.90;76.40;;;;;;4992029;28;20406;-71
2021/03/21 09:28:33;;;;;;;6.57;5.63;;;6.10;76.50;;;;;;4992269;28;20770;-72
2021/03/21 09:31:03;;;;;;;7.70;6.05;;;6.50;75.70;;;;;;4993949;28;20395;-72
2021/03/21 09:33:36;;;;;;;10.52;6.78;;;6.50;74.00;;;;;;4990708;28;20939;-72
2021/03/21 09:36:11;;;;;;;8.68;6.78;;;6.40;74.00;;;;;;4984861;28;20461;-72
2021/03/21 09:38:46;;;;;;;8.05;6.03;;;6.30;73.40;;;;;;4991370;28;20762;-72
2021/03/21 09:41:14;;;;;;;7.28;6.18;;;6.20;73.20;;;;;;4989084;28;20472;-71
2021/03/21 09:43:42;;;;;;;7.25;6.25;;;6.10;74.60;;;;;;4992717;28;20497;-72
2021/03/21 09:46:23;;;;;;;8.30;6.47;;;6.10;75.80;;;;;;5007036;28;20497;-72
2021/03/21 09:49:05;;;;;;;8.13;7.00;;;6.30;75.20;;;;;;4991236;28;20409;-72
2021/03/21 09:51:42;;;;;;;8.23;6.63;;;6.40;74.60;;;;;;4992116;28;20873;-71
2021/03/21 09:54:17;;;;;;;7.60;6.63;;;6.30;73.70;;;;;;4984786;28;20436;-72
2021/03/21 09:56:49;;;;;;;7.40;6.20;;;6.10;74.40;;;;;;4992362;28;20414;-72
2021/03/21 09:59:28;;;;;;;9.20;6.82;;;6.20;74.40;;;;;;4991141;28;20802;-72
2021/03/21 10:02:00;;;;;;;8.25;6.82;;;6.40;73.30;;;;;;4993158;28;20629;-71
2021/03/21 10:04:34;;;;;;;9.35;7.00;;;6.50;74.60;;;;;;5003553;28;22509;-69
2021/03/21 10:07:07;;;;;;;8.18;6.35;;;6.20;73.70;;;;;;4987670;28;20937;-69
2021/03/21 10:09:34;;;;;;;8.07;6.80;;;6.20;74.00;;;;;;4990108;28;20436;-69
2021/03/21 10:12:05;;;;;;;8.15;6.60;;;6.50;76.30;;;;;;4990270;28;20399;-69
2021/03/21 10:15:06;;;;;;;7.22;6.43;;;6.90;73.90;;;;;;4989960;28;20870;-69
2021/03/21 10:17:47;;;;;;;8.02;6.60;;;7.30;71.10;;;;;;5004329;28;20472;-71
2021/03/21 10:20:15;;;;;;;8.30;7.05;;;7.50;70.70;;;;;;4990199;28;20402;-70
2021/03/21 10:23:01;;;;;;;9.88;6.97;;;7.70;69.60;;;;;;4988948;28;20458;-72
2021/03/21 10:26:03;;;;;;;8.40;7.05;;;7.50;73.60;;;;;;4987899;28;20425;-71
2021/03/21 10:28:42;;;;;;;35.05;22.13;;;8.00;72.50;;;;;;4990313;28;20456;-69
2021/03/21 10:31:32;;;;;;;29.13;19.60;;;7.80;70.40;;;;;;4986875;28;20501;-69
2021/03/21 10:34:37;;;;;;;49.20;34.10;;;7.70;68.00;;;;;;4988839;28;20497;-69
2021/03/21 10:37:04;;;;;;;13.43;9.88;;;7.40;72.30;;;;;;5003360;28;20407;-69
2021/03/21 10:40:03;;;;;;;9.00;7.10;;;7.80;72.30;;;;;;4989451;28;20390;-69
2021/03/21 10:42:38;;;;;;;8.38;7.22;;;;;;;;;;4987454;28;21020;-72
2021/03/21 10:45:06;;;;;;;7.63;6.45;;;;;;;;;;4989981;28;20416;-69
2021/03/21 10:47:50;;;;;;;9.32;7.32;;;8.40;72.80;;;;;;4997254;28;20505;-69
2021/03/21 10:50:46;;;;;;;8.93;7.10;;;8.80;65.70;;;;;;4989095;28;20394;-70
2021/03/21 10:53:20;;;;;;;7.55;6.57;;;8.40;68.20;;;;;;4987801;28;20421;-69
2021/03/21 10:56:21;;;;;;;8.93;7.05;;;8.30;68.70;;;;;;4990153;28;20421;-70
2021/03/21 10:59:07;;;;;;;7.32;6.63;;;8.70;65.40;;;;;;4988401;28;20426;-69
2021/03/21 11:01:35;;;;;;;9.35;7.20;;;8.90;65.90;;;;;;4990005;28;20782;-69
2021/03/21 11:04:22;;;;;;;8.80;6.82;;;8.40;65.90;;;;;;4987069;28;20422;-70
2021/03/21 11:06:51;;;;;;;10.10;8.10;;;8.30;65.70;;;;;;4988105;28;20406;-70
2021/03/21 11:09:18;;;;;;;9.45;7.10;;;8.30;71.50;;;;;;4996822;28;20410;-70
2021/03/21 11:11:48;;;;;;;10.90;9.23;;;8.40;67.60;;;;;;4989150;28;20396;-69
2021/03/21 11:14:20;;;;;;;13.95;10.00;;;8.60;69.10;;;;;;4988407;28;20410;-69
2021/03/21 11:16:52;;;;;;;9.98;8.07;;;8.70;64.70;;;;;;4988076;28;20472;-69
2021/03/21 11:19:28;;;;;;;8.30;7.40;;;8.70;66.10;;;;;;5000234;28;20407;-69
2021/03/21 11:21:56;;;;;;;9.70;8.23;;;9.10;67.50;;;;;;4993395;28;20432;-69
2021/03/21 11:24:31;;;;;;;9.63;8.63;;;9.40;65.00;;;;;;4993931;28;20398;-69
2021/03/21 11:27:00;;;;;;;8.20;7.40;;;8.90;63.00;;;;;;4993504;28;20916;-70
2021/03/21 11:29:31;;;;;;;8.77;7.88;;;9.00;65.60;;;;;;4992667;28;20817;-70
2021/03/21 11:32:03;;;;;;;9.38;7.68;;;8.60;63.90;;;;;;4993710;28;20901;-69
2021/03/21 11:34:33;;;;;;;8.73;7.60;;;8.70;64.80;;;;;;4992838;28;20480;-69
2021/03/21 11:37:03;;;;;;;10.73;7.75;;;8.70;65.00;;;;;;4990770;28;20485;-72
2021/03/21 11:39:34;;;;;;;7.75;6.95;;;8.70;63.70;;;;;;4991971;28;20395;-71
2021/03/21 11:42:02;;;;;;;8.40;7.28;;;9.20;64.00;;;;;;4992235;28;20429;-69
2021/03/21 11:44:30;;;;;;;7.80;7.00;;;9.00;62.10;;;;;;4990991;28;20906;-72
2021/03/21 11:47:09;;;;;;;8.32;7.30;;;9.10;68.30;;;;;;4993670;28;20417;-71
2021/03/21 11:49:36;;;;;;;8.32;6.70;;;9.40;63.30;;;;;;4993067;28;20394;-69
2021/03/21 11:52:04;;;;;;;8.25;7.43;;;9.90;62.40;;;;;;4992406;28;20542;-68
2021/03/21 11:54:33;;;;;;;7.53;6.82;;;10.30;59.50;;;;;;4990818;28;20399;-69
2021/03/21 11:57:23;;;;;;;8.05;7.05;;;10.30;61.00;;;;;;4999511;28;20765;-69
2021/03/21 11:59:55;;;;;;;7.93;7.13;;;9.90;59.70;;;;;;4991115;28;20418;-71
2021/03/21 12:02:38;;;;;;;24.23;20.53;;;9.10;61.10;;;;;;4991510;28;20448;-70
2021/03/21 12:05:07;;;;;;;7.90;7.10;;;8.90;63.40;;;;;;4991011;28;20410;-69
2021/03/21 12:07:34;;;;;;;17.83;13.43;;;9.00;62.30;;;;;;4991916;28;20413;-69
2021/03/21 12:10:01;;;;;;;8.05;7.25;;;9.20;62.70;;;;;;4990141;28;20480;-70
2021/03/21 12:12:40;;;;;;;8.07;6.40;;;9.60;61.60;;;;;;4997861;28;20471;-69
2021/03/21 12:15:15;;;;;;;9.10;6.85;;;10.30;59.30;;;;;;4990646;28;20501;-70
2021/03/21 12:17:41;;;;;;;8.55;7.03;;;10.60;61.70;;;;;;4991703;28;20409;-70
2021/03/21 12:20:41;;;;;;;7.50;6.70;;;10.50;58.90;;;;;;4990844;28;20398;-72
2021/03/21 12:23:32;;;;;;;6.78;6.07;;;10.60;57.90;;;;;;4984729;28;20990;-70
2021/03/21 12:26:10;;;;;;;7.22;6.10;;;10.40;58.00;;;;;;4996630;28;20398;-70
2021/03/21 12:28:46;;;;;;;6.82;5.90;;;10.60;58.40;;;;;;4987688;28;20403;-70
2021/03/21 12:31:17;;;;;;;9.53;8.53;;;11.10;56.90;;;;;;4988233;28;20424;-69
2021/03/21 12:33:44;;;;;;;8.43;6.63;;;11.00;56.40;;;;;;4988534;28;20406;-70
2021/03/21 12:36:15;;;;;;;9.50;8.50;;;11.00;58.80;;;;;;4990981;28;20394;-72
2021/03/21 12:38:46;;;;;;;9.20;6.32;;;10.30;59.10;;;;;;4990830;28;20955;-69
2021/03/21 12:41:34;;;;;;;9.05;8.15;;;10.40;58.90;;;;;;4992166;28;20510;-69
2021/03/21 12:44:23;;;;;;;10.55;8.30;;;10.30;58.60;;;;;;4990710;28;20525;-72
2021/03/21 12:46:53;;;;;;;12.50;9.80;;;9.90;57.20;;;;;;4992564;28;20890;-69
2021/03/21 12:49:45;;;;;;;7.43;6.65;;;9.60;57.70;;;;;;4992375;28;20498;-70
2021/03/21 12:52:15;;;;;;;7.93;6.60;;;10.30;58.30;;;;;;4987595;28;20495;-70
2021/03/21 12:54:43;;;;;;;7.88;6.72;;;10.70;56.70;;;;;;4988648;28;20409;-70
2021/03/21 12:57:14;;;;;;;7.55;6.53;;;10.90;57.30;;;;;;5008137;28;20414;-72
2021/03/21 12:59:45;;;;;;;7.15;6.45;;;;;;;;;;4992088;28;20399;-72
2021/03/21 13:02:24;;;;;;;16.70;12.43;;;11.50;54.40;;;;;;4992244;28;20818;-72
2021/03/21 13:04:51;;;;;;;8.80;6.78;;;10.90;56.00;;;;;;5006181;28;20438;-70
2021/03/21 13:07:17;;;;;;;7.32;6.63;;;10.80;54.80;;;;;;5008449;28;20988;-70
2021/03/21 13:09:44;;;;;;;7.63;6.03;;;10.90;55.30;;;;;;4983666;28;20486;-70
2021/03/21 13:12:10;;;;;;;7.78;5.93;;;11.20;56.00;;;;;;4993651;28;20912;-70
2021/03/21 13:14:36;;;;;;;6.28;5.72;;;11.00;56.70;;;;;;5018359;28;20755;-70
2021/03/21 13:17:04;;;;;;;7.63;5.80;;;11.20;56.20;;;;;;4992665;28;20454;-70
2021/03/21 13:19:30;;;;;;;6.63;5.75;;;11.40;55.70;;;;;;4983540;28;20412;-70
2021/03/21 13:21:56;;;;;;;6.97;5.38;;;12.00;53.00;;;;;;5002935;28;20428;-70
2021/03/21 13:24:23;;;;;;;7.65;5.68;;;;;;;;;;4998150;28;20777;-70
2021/03/21 13:26:49;;;;;;;8.27;5.90;;;12.50;52.50;;;;;;4980120;28;20400;-70
2021/03/21 13:29:16;;;;;;;6.65;5.93;;;12.60;51.90;;;;;;4992644;28;21029;-70
2021/03/21 13:31:42;;;;;;;5.97;5.20;;;12.90;51.30;;;;;;5018565;28;20399;-70
2021/03/21 13:34:09;;;;;;;6.05;5.45;;;12.80;51.10;;;;;;4992591;28;20454;-70
2021/03/21 13:36:35;;;;;;;6.97;5.57;;;12.90;49.60;;;;;;4992977;28;20433;-70
2021/03/21 13:39:01;;;;;;;6.70;6.10;;;12.50;52.10;;;;;;4992755;28;20438;-69
2021/03/21 13:41:28;;;;;;;8.88;6.50;;;;;;;;;;4992082;28;20984;-70
2021/03/21 13:43:54;;;;;;;8.25;7.32;;;11.30;63.90;;;;;;4992134;28;20445;-69
2021/03/21 13:46:21;;;;;;;23.27;20.02;;;10.80;54.70;;;;;;4982525;28;20395;-70
2021/03/21 13:48:47;;;;;;;6.85;5.93;;;10.60;56.40;;;;;;4991212;28;20414;-70
2021/03/21 13:51:14;;;;;;;6.90;6.10;;;11.30;54.00;;;;;;4991035;28;20440;-70
2021/03/21 13:53:40;;;;;;;6.80;6.10;;;11.90;52.70;;;;;;5005074;28;20407;-70
2021/03/21 13:56:07;;;;;;;6.25;5.55;;;12.20;52.60;;;;;;5007480;28;20799;-70